ADDS METAR Data INFO
IDs: Format: Raw Decoded Include TAF

Data at: 2148 UTC 15 Dec 2017

KGEY 152053Z AUTO 18004KT 10SM CLR 04/M08 A2986 RMK AO2 SLP145 T00391083 56035
KGEY 151953Z AUTO 14005KT 10SM CLR 04/M09 A2989 RMK AO2 SLP152 T00441089 TSNO $
KGEY 151853Z AUTO 13004KT 10SM CLR 02/M07 A2993 RMK AO2 SLP170 T00171067 TSNO $
KGEY 151753Z AUTO 14003KT 10SM CLR M02/M08 A2997 RMK AO2 SLP188 T10221083 11022 21094 58016 TSNO $
KGEY 151653Z AUTO 15003KT 10SM CLR M04/M08 A3000 RMK AO2 SLP203 T10441083 TSNO $
KGEY 151553Z AUTO 15003KT 10SM CLR M07/M09 A3001 RMK AO2 SLP207 T10671089 TSNO $
KGEY 151453Z AUTO 15003KT 10SM CLR M09/M11 A3002 RMK AO2 SLP216 T10891106 TSNO $
KGEY 151353Z AUTO 12003KT 10SM CLR M09/M11 A3004 RMK AO2 SLP219 T10891106 TSNO
KGEY 151253Z AUTO 14003KT 10SM CLR M09/M10 A3005 RMK AO2 SLP220 T10891100 TSNO
KGEY 151153Z AUTO 00000KT 10SM CLR M08/M10 A3005 RMK AO2 SLP216 T10831100 11033 21094 58016 TSNO
KGEY 151053Z AUTO 13003KT 10SM CLR M08/M10 A3007 RMK AO2 SLP219 T10781100 TSNO
KGEY 150953Z AUTO 00000KT 10SM CLR M08/M10 A3010 RMK AO2 SLP225 T10781100 TSNO
KGEY 150853Z AUTO 00000KT 10SM CLR M07/M09 A3011 RMK AO2 SLP226 T10671089 56017 TSNO
KGEY 150753Z AUTO 12003KT 10SM CLR M05/M09 A3012 RMK AO2 SLP226 T10501089 TSNO
KGEY 150653Z AUTO 11003KT 10SM CLR M04/M08 A3014 RMK AO2 SLP232 T10391078 400721061 TSNO
KGEY 150553Z AUTO 14004KT 10SM CLR M04/M09 A3016 RMK AO2 SLP243 T10391089 10028 21044 56009 TSNO
KGEY 150453Z AUTO 14005KT 10SM CLR M04/M09 A3016 RMK AO2 SLP248 T10391089 TSNO
KGEY 150353Z AUTO 13006KT 10SM CLR M03/M08 A3018 RMK AO2 SLP262 T10281083 TSNO
KGEY 150253Z AUTO 13004KT 10SM CLR M03/M08 A3019 RMK AO2 SLP268 T10281083 58007 TSNO
KGEY 150153Z AUTO 12005KT 10SM CLR M02/M08 A3020 RMK AO2 SLP267 T10171083 TSNO
KGEY 150053Z AUTO 13004KT 10SM CLR 01/M07 A3021 RMK AO2 SLP266 T00061072 TSNO
KGEY 142353Z AUTO 19005KT 10SM CLR 03/M07 A3021 RMK AO2 SLP258 T00281072 10072 20028 56009 TSNO
KGEY 142253Z AUTO 19003KT 10SM CLR 05/M07 A3022 RMK AO2 SLP257 T00501072 TSNO
KGEY 142153Z AUTO VRB03KT 10SM CLR 07/M07 A3023 RMK AO2 SLP258 T00671072 TSNO
KGEY 142053Z AUTO 32005KT 10SM CLR 07/M07 A3024 RMK AO2 SLP263 T00671072 56021 TSNO
KGEY 141953Z AUTO 33013KT 10SM CLR 07/M07 A3026 RMK AO2 SLP266 T00671072 TSNO
KGEY 141853Z AUTO 36013KT 10SM CLR 06/M07 A3028 RMK AO2 SLP276 T00561067 TSNO
KGEY 141753Z AUTO 35011KT 10SM CLR 05/M06 A3032 RMK AO2 SLP290 T00501061 10050 21061 50005 TSNO
KGEY 141653Z AUTO 28011KT 10SM CLR 03/M06 A3032 RMK AO2 SLP293 T00281056 TSNO
KGEY 141553Z AUTO 19004KT 10SM CLR M03/M07 A3031 RMK AO2 SLP299 T10281067 TSNO
KGEY 141453Z AUTO 25006KT 10SM CLR M06/M08 A3030 RMK AO2 SLP298 T10561078 51010 TSNO
KGEY 141353Z AUTO 29009KT 10SM CLR M03/M07 A3029 RMK AO2 SLP292 T10331067 TSNO
KGEY 141253Z AUTO 27010KT 10SM CLR M02/M06 A3028 RMK AO2 SLP287 T10221061 TSNO
KGEY 141153Z AUTO 35005KT 10SM FEW060 01/M06 A3026 RMK AO2 SLP275 T00061056 10011 21022 51004 TSNO
KGEY 141053Z AUTO 32009KT 10SM FEW060 00/M06 A3026 RMK AO2 SLP274 T00001056 TSNO